Time;durP1;ratioP1;P1;durP2;ratioP2;P2;SDS_P1;SDS_P2;PMS_P1;PMS_P2;Temp;Humidity;BMP_temperature;BMP_pressure;BME280_temperature;BME280_humidity;BME280_pressure;Samples;Min_cycle;Max_cycle;Signal;HPM_P1;HPM_P2
2023/07/18 00:00:38;;;;;;;4.20;3.80;;;26.20;55.30;;;;;;5012797;28;21353;-80
2023/07/18 00:03:08;;;;;;;3.80;3.50;;;26.20;55.40;;;;;;5017024;28;20509;-79
2023/07/18 00:05:37;;;;;;;4.50;4.10;;;26.20;55.20;;;;;;5042265;28;20466;-79
2023/07/18 00:08:06;;;;;;;7.67;4.13;;;26.10;55.30;;;;;;5031965;28;20514;-80
2023/07/18 00:10:35;;;;;;;4.13;3.80;;;26.10;55.30;;;;;;5021760;28;20440;-80
2023/07/18 00:13:04;;;;;;;3.80;3.50;;;26.10;55.40;;;;;;5024962;28;20448;-80
2023/07/18 00:15:32;;;;;;;4.03;3.63;;;26.10;55.20;;;;;;5019137;28;20504;-79
2023/07/18 00:18:02;;;;;;;4.57;4.17;;;26.00;55.40;;;;;;5008548;28;20431;-81
2023/07/18 00:20:30;;;;;;;4.43;4.00;;;26.00;55.40;;;;;;5035220;28;20439;-80
2023/07/18 00:22:59;;;;;;;4.90;3.93;;;26.00;55.40;;;;;;5026857;28;20439;-80
2023/07/18 00:25:28;;;;;;;4.20;3.90;;;26.00;55.20;;;;;;5010619;28;20427;-80
2023/07/18 00:27:56;;;;;;;4.00;3.70;;;25.90;55.40;;;;;;5018915;28;20440;-80
2023/07/18 00:30:26;;;;;;;4.30;3.90;;;25.90;55.50;;;;;;5022521;28;20509;-80
2023/07/18 00:32:54;;;;;;;4.30;3.93;;;25.90;55.50;;;;;;5029120;28;20458;-80
2023/07/18 00:35:23;;;;;;;4.47;4.13;;;25.90;55.30;;;;;;5019183;28;20460;-80
2023/07/18 00:37:52;;;;;;;3.80;3.50;;;25.90;55.60;;;;;;5027863;28;20494;-80
2023/07/18 00:40:19;;;;;;;5.40;4.00;;;25.90;55.40;;;;;;5022002;28;20437;-80
2023/07/18 00:42:49;;;;;;;4.67;3.93;;;25.80;55.50;;;;;;5030510;28;20435;-80
2023/07/18 00:45:16;;;;;;;3.60;3.30;;;25.80;55.40;;;;;;5021089;28;20425;-80
2023/07/18 00:47:47;;;;;;;6.20;4.30;;;25.80;55.40;;;;;;5019913;28;20450;-80
2023/07/18 00:50:15;;;;;;;3.93;3.63;;;25.80;55.30;;;;;;5027013;28;20476;-79
2023/07/18 00:52:45;;;;;;;4.90;4.37;;;25.80;55.40;;;;;;5028533;28;20468;-80
2023/07/18 00:55:14;;;;;;;3.83;3.53;;;25.70;55.40;;;;;;5034997;28;20493;-80
2023/07/18 00:57:43;;;;;;;5.73;3.90;;;25.70;55.30;;;;;;5029544;28;20402;-80
2023/07/18 01:00:13;;;;;;;3.70;3.40;;;25.70;55.70;;;;;;5035216;28;20475;-80
2023/07/18 01:02:43;;;;;;;4.27;3.87;;;25.70;55.50;;;;;;5021361;28;20451;-80
2023/07/18 01:05:11;;;;;;;4.27;3.87;;;25.70;55.40;;;;;;5016018;28;20423;-80
2023/07/18 01:07:39;;;;;;;5.10;4.50;;;25.70;55.50;;;;;;5016049;28;20476;-80
2023/07/18 01:10:15;;;;;;;4.00;3.70;;;25.70;55.50;;;;;;4995970;28;20507;-79
2023/07/18 01:12:43;;;;;;;3.80;3.50;;;25.70;55.50;;;;;;5027057;28;20501;-80
2023/07/18 01:15:13;;;;;;;4.00;3.70;;;25.60;55.40;;;;;;5034025;28;20475;-80
2023/07/18 01:17:44;;;;;;;4.13;3.73;;;25.50;55.60;;;;;;5012355;28;20471;-80
2023/07/18 01:20:16;;;;;;;4.00;3.70;;;25.60;55.70;;;;;;5016589;28;20460;-80
2023/07/18 01:22:45;;;;;;;7.00;4.50;;;25.60;55.50;;;;;;5014070;28;20500;-80
2023/07/18 01:25:16;;;;;;;4.20;3.87;;;25.60;55.50;;;;;;5010484;28;20462;-80
2023/07/18 01:27:44;;;;;;;3.90;3.57;;;25.50;55.10;;;;;;5014303;28;20528;-80
2023/07/18 01:30:12;;;;;;;4.43;4.00;;;25.40;55.50;;;;;;5005781;28;20473;-79
2023/07/18 01:32:41;;;;;;;4.20;3.80;;;25.40;55.60;;;;;;5018093;28;20500;-80
2023/07/18 01:35:10;;;;;;;4.17;3.77;;;25.40;55.60;;;;;;5001349;28;20502;-79
2023/07/18 01:37:39;;;;;;;4.03;3.63;;;25.40;55.50;;;;;;5005161;28;20503;-79
2023/07/18 01:40:12;;;;;;;4.37;3.40;;;25.40;55.50;;;;;;5016129;28;20454;-80
2023/07/18 01:42:40;;;;;;;4.20;3.80;;;25.40;55.60;;;;;;5017017;28;20444;-80
2023/07/18 01:45:09;;;;;;;6.70;3.57;;;25.40;55.50;;;;;;5013725;28;20403;-80
2023/07/18 01:47:38;;;;;;;4.10;3.73;;;25.30;55.50;;;;;;5016879;28;21014;-80
2023/07/18 01:50:07;;;;;;;4.43;4.03;;;25.30;55.50;;;;;;5024343;28;20470;-80
2023/07/18 01:52:36;;;;;;;4.27;3.80;;;25.30;55.30;;;;;;5012011;28;20479;-80
2023/07/18 01:55:05;;;;;;;4.30;3.90;;;25.20;55.60;;;;;;5021326;28;20417;-80
2023/07/18 01:57:43;;;;;;;3.57;3.23;;;25.20;55.60;;;;;;5048261;22;20506;-78
2023/07/18 02:00:12;;;;;;;4.77;3.60;;;25.20;55.50;;;;;;5056411;28;20477;-77
2023/07/18 02:02:40;;;;;;;3.87;3.60;;;25.20;55.30;;;;;;5045342;28;20458;-79
2023/07/18 02:05:09;;;;;;;4.27;3.87;;;25.20;55.50;;;;;;5054296;28;20453;-78
2023/07/18 02:07:37;;;;;;;5.70;3.90;;;25.10;55.50;;;;;;5038686;28;20443;-78
2023/07/18 02:10:06;;;;;;;5.73;3.47;;;25.10;55.60;;;;;;5045805;28;20940;-79
2023/07/18 02:12:36;;;;;;;3.23;3.03;;;25.20;55.60;;;;;;5033823;28;20468;-78
2023/07/18 02:15:05;;;;;;;4.83;3.70;;;25.20;55.30;;;;;;5050900;28;20446;-78
2023/07/18 02:17:33;;;;;;;4.10;3.70;;;25.10;55.60;;;;;;5056027;28;20451;-78
2023/07/18 02:20:06;;;;;;;3.30;3.00;;;25.10;55.70;;;;;;5055198;28;20491;-78
2023/07/18 02:22:34;;;;;;;3.87;3.57;;;25.00;55.70;;;;;;5055107;28;20445;-79
2023/07/18 02:25:03;;;;;;;3.97;3.60;;;25.10;55.70;;;;;;5050238;28;20414;-79
2023/07/18 02:27:31;;;;;;;5.07;3.67;;;25.10;55.60;;;;;;5052526;28;20442;-79
2023/07/18 02:30:01;;;;;;;3.70;3.33;;;25.00;55.30;;;;;;5052132;28;20512;-79
2023/07/18 02:32:30;;;;;;;4.37;3.97;;;25.00;55.50;;;;;;5056595;28;20558;-79
2023/07/18 02:34:58;;;;;;;6.03;4.33;;;25.00;55.50;;;;;;5055289;28;20446;-78
2023/07/18 02:37:26;;;;;;;4.07;3.77;;;25.00;55.50;;;;;;5055754;28;20450;-78
2023/07/18 02:39:54;;;;;;;4.10;3.70;;;24.90;55.60;;;;;;5049311;28;20444;-78
2023/07/18 02:42:22;;;;;;;5.47;3.77;;;24.90;55.60;;;;;;5036799;28;20447;-78
2023/07/18 02:44:50;;;;;;;5.77;3.93;;;24.90;55.40;;;;;;5056150;28;20490;-79
2023/07/18 02:47:19;;;;;;;4.70;3.70;;;24.90;55.60;;;;;;5046752;28;20445;-78
2023/07/18 02:49:47;;;;;;;3.20;2.90;;;24.80;55.50;;;;;;5043408;28;20446;-78
2023/07/18 02:52:15;;;;;;;4.90;3.83;;;24.80;55.50;;;;;;5045853;28;20468;-77
2023/07/18 02:54:43;;;;;;;3.80;3.50;;;24.80;55.50;;;;;;5050209;28;20547;-78
2023/07/18 02:57:11;;;;;;;4.10;3.70;;;24.80;55.90;;;;;;5050697;28;20447;-78
2023/07/18 02:59:40;;;;;;;4.10;3.30;;;24.80;55.50;;;;;;5046735;28;20475;-79
2023/07/18 03:02:08;;;;;;;4.33;3.83;;;24.80;55.50;;;;;;5046044;28;20459;-78
2023/07/18 03:04:38;;;;;;;3.70;3.40;;;24.80;55.80;;;;;;5045265;28;20450;-78
2023/07/18 03:07:07;;;;;;;5.57;3.80;;;24.80;55.50;;;;;;5044789;28;20446;-78
2023/07/18 03:09:35;;;;;;;5.10;3.60;;;24.80;55.20;;;;;;5053627;28;20452;-79
2023/07/18 03:12:06;;;;;;;3.70;3.40;;;24.70;55.30;;;;;;5047506;28;20570;-78
2023/07/18 03:14:35;;;;;;;3.50;3.30;;;24.70;55.40;;;;;;5046775;28;20542;-78
2023/07/18 03:17:04;;;;;;;3.70;3.40;;;24.70;55.50;;;;;;5060286;28;20473;-78
2023/07/18 03:19:32;;;;;;;4.33;3.80;;;24.70;55.50;;;;;;5059599;28;20462;-79
2023/07/18 03:22:02;;;;;;;3.60;3.20;;;24.70;55.30;;;;;;5055452;28;20435;-79
2023/07/18 03:24:30;;;;;;;3.67;3.37;;;24.60;55.30;;;;;;5045065;28;20451;-79
2023/07/18 03:26:58;;;;;;;3.63;3.30;;;24.60;55.60;;;;;;5054239;28;20547;-79
2023/07/18 03:29:26;;;;;;;5.00;3.50;;;24.70;55.40;;;;;;5050514;28;20459;-78
2023/07/18 03:31:54;;;;;;;4.83;3.20;;;24.60;55.60;;;;;;5045006;28;20473;-79
2023/07/18 03:34:22;;;;;;;4.27;3.87;;;24.60;55.30;;;;;;5058623;28;20448;-79
2023/07/18 03:36:51;;;;;;;3.63;3.33;;;24.60;55.60;;;;;;5050694;28;20462;-80
2023/07/18 03:39:20;;;;;;;3.40;3.10;;;24.60;55.40;;;;;;5058816;28;20500;-79
2023/07/18 03:41:49;;;;;;;4.37;3.10;;;24.60;55.30;;;;;;5057143;28;20504;-79
2023/07/18 03:44:16;;;;;;;4.40;3.43;;;24.50;55.40;;;;;;5054191;28;20485;-79
2023/07/18 03:46:44;;;;;;;3.87;3.57;;;24.50;55.60;;;;;;5048602;28;20435;-79
2023/07/18 03:49:13;;;;;;;4.63;3.30;;;24.60;55.40;;;;;;5056237;28;20467;-78
2023/07/18 03:51:41;;;;;;;3.70;3.17;;;24.60;55.40;;;;;;5053529;28;20546;-79
2023/07/18 03:54:09;;;;;;;3.50;3.30;;;24.60;55.30;;;;;;5042440;28;20422;-78
2023/07/18 03:56:39;;;;;;;4.63;3.77;;;24.60;55.20;;;;;;5044193;28;20453;-78
2023/07/18 03:59:07;;;;;;;3.20;2.90;;;24.50;55.30;;;;;;5053853;28;20573;-79
2023/07/18 04:01:35;;;;;;;3.47;3.27;;;24.60;55.40;;;;;;5052731;28;20465;-78
2023/07/18 04:04:03;;;;;;;5.00;3.47;;;24.60;55.10;;;;;;5047683;28;20427;-79
2023/07/18 04:06:32;;;;;;;3.70;3.40;;;24.50;55.10;;;;;;5043481;28;20438;-78
2023/07/18 04:09:00;;;;;;;4.30;3.47;;;24.50;55.40;;;;;;5033611;28;20521;-79
2023/07/18 04:11:28;;;;;;;3.60;3.17;;;24.50;55.20;;;;;;5033359;28;20996;-78
2023/07/18 04:13:57;;;;;;;3.77;3.47;;;24.50;55.40;;;;;;5034475;28;20467;-79
2023/07/18 04:16:25;;;;;;;5.53;3.47;;;24.50;55.10;;;;;;5037168;28;20478;-79
2023/07/18 04:18:54;;;;;;;4.10;3.73;;;24.50;55.20;;;;;;5053163;28;20470;-77
2023/07/18 04:21:22;;;;;;;4.80;3.33;;;24.50;55.40;;;;;;5038283;28;20518;-77
2023/07/18 04:23:51;;;;;;;3.43;3.13;;;24.50;55.30;;;;;;5038096;28;20478;-78
2023/07/18 04:26:20;;;;;;;3.57;3.27;;;24.50;55.10;;;;;;5050842;28;20470;-78
2023/07/18 04:28:49;;;;;;;3.30;3.00;;;24.50;55.10;;;;;;5054148;28;20486;-78
2023/07/18 04:31:18;;;;;;;6.47;3.60;;;24.60;55.30;;;;;;5054812;28;20417;-78
2023/07/18 04:33:47;;;;;;;4.03;3.57;;;24.60;55.00;;;;;;5046934;28;20469;-78
2023/07/18 04:36:15;;;;;;;5.20;3.77;;;24.60;55.10;;;;;;5045595;28;20490;-79
2023/07/18 04:38:44;;;;;;;3.50;3.20;;;24.60;55.00;;;;;;5036410;28;20531;-78
2023/07/18 04:41:12;;;;;;;4.40;4.00;;;24.60;55.10;;;;;;5053714;28;20869;-79
2023/07/18 04:43:40;;;;;;;4.17;3.50;;;24.60;54.90;;;;;;5045018;28;20477;-78
2023/07/18 04:46:10;;;;;;;3.73;3.20;;;24.60;55.00;;;;;;5039592;28;20451;-78
2023/07/18 04:48:40;;;;;;;4.77;3.40;;;24.60;54.90;;;;;;5033649;28;20529;-77
2023/07/18 04:51:08;;;;;;;4.30;3.80;;;24.60;54.80;;;;;;5047925;28;20498;-78
2023/07/18 04:53:35;;;;;;;5.37;3.40;;;24.60;54.80;;;;;;5052057;28;20506;-79
2023/07/18 04:56:04;;;;;;;3.13;2.93;;;24.70;55.60;;;;;;5053031;28;20419;-78
2023/07/18 04:58:31;;;;;;;3.37;3.07;;;24.70;54.80;;;;;;5051508;28;20444;-79
2023/07/18 05:00:59;;;;;;;5.60;3.73;;;24.70;54.60;;;;;;5039019;28;20452;-79
2023/07/18 05:03:28;;;;;;;3.67;3.27;;;24.70;54.50;;;;;;5049387;28;20435;-78
2023/07/18 05:06:09;;;;;;;3.30;3.10;;;24.60;54.40;;;;;;5041184;28;20517;-79
2023/07/18 05:08:38;;;;;;;3.93;3.53;;;24.70;54.90;;;;;;5050266;28;20936;-79
2023/07/18 05:11:06;;;;;;;6.70;3.50;;;24.70;54.80;;;;;;5044251;28;20534;-78
2023/07/18 05:13:34;;;;;;;3.97;3.23;;;24.70;54.80;;;;;;5044363;28;20558;-79
2023/07/18 05:16:02;;;;;;;4.67;3.67;;;24.70;54.50;;;;;;5050606;28;20430;-79
2023/07/18 05:18:30;;;;;;;4.50;3.33;;;24.70;54.80;;;;;;5051505;28;20451;-79
2023/07/18 05:20:58;;;;;;;4.00;3.23;;;24.70;54.80;;;;;;5052585;28;20430;-79
2023/07/18 05:23:28;;;;;;;5.03;3.50;;;24.70;54.60;;;;;;5052405;28;20504;-78
2023/07/18 05:25:57;;;;;;;4.33;3.40;;;24.80;54.60;;;;;;5049466;28;20514;-78
2023/07/18 05:28:25;;;;;;;3.67;3.40;;;24.80;54.70;;;;;;5043484;28;20470;-78
2023/07/18 05:30:53;;;;;;;3.70;3.40;;;24.80;54.40;;;;;;5051871;28;20517;-79
2023/07/18 05:33:21;;;;;;;4.07;3.70;;;24.80;54.50;;;;;;5043274;28;20600;-79
2023/07/18 05:35:49;;;;;;;3.53;3.20;;;24.80;54.50;;;;;;5046223;28;20464;-79
2023/07/18 05:38:17;;;;;;;6.80;2.90;;;24.90;54.50;;;;;;5049773;28;20505;-80
2023/07/18 05:40:47;;;;;;;4.73;3.50;;;24.90;54.40;;;;;;5055889;28;20434;-79
2023/07/18 05:43:15;;;;;;;4.33;3.40;;;24.90;54.50;;;;;;5048177;28;20441;-79
2023/07/18 05:45:43;;;;;;;3.53;3.23;;;25.00;54.20;;;;;;5054288;28;20508;-80
2023/07/18 05:48:11;;;;;;;5.33;3.47;;;25.00;54.20;;;;;;5052277;28;20465;-79
2023/07/18 05:50:39;;;;;;;5.87;3.50;;;25.00;54.40;;;;;;5060109;28;20446;-80
2023/07/18 05:53:08;;;;;;;3.60;3.30;;;25.00;54.30;;;;;;5047168;28;20570;-79
2023/07/18 05:55:36;;;;;;;4.70;3.57;;;25.00;54.20;;;;;;5056975;28;20525;-79
2023/07/18 05:58:06;;;;;;;4.57;3.20;;;25.00;54.90;;;;;;5054678;28;20488;-79
2023/07/18 06:00:34;;;;;;;5.27;3.47;;;25.00;54.00;;;;;;5056761;28;20442;-79
2023/07/18 06:03:02;;;;;;;5.53;3.90;;;25.00;54.40;;;;;;5050207;28;20442;-80
2023/07/18 06:05:31;;;;;;;4.93;3.57;;;25.00;54.40;;;;;;5051226;28;20859;-79
2023/07/18 06:07:59;;;;;;;3.57;3.23;;;25.00;54.20;;;;;;5060380;28;20537;-79
2023/07/18 06:10:27;;;;;;;8.53;3.67;;;25.00;54.20;;;;;;5059931;28;20447;-80
2023/07/18 06:12:55;;;;;;;8.50;3.97;;;25.10;54.10;;;;;;5052649;28;20446;-79
2023/07/18 06:15:25;;;;;;;7.63;4.17;;;25.10;54.00;;;;;;5052004;28;20469;-80
2023/07/18 06:17:53;;;;;;;4.97;3.90;;;25.10;54.30;;;;;;5060082;28;20532;-80
2023/07/18 06:20:21;;;;;;;4.63;3.70;;;25.10;54.10;;;;;;5057787;28;20436;-78
2023/07/18 06:22:49;;;;;;;4.43;3.60;;;25.20;54.10;;;;;;5057240;28;20443;-79
2023/07/18 06:25:17;;;;;;;5.83;3.20;;;25.10;54.00;;;;;;5054517;28;20412;-80
2023/07/18 06:27:45;;;;;;;4.10;3.37;;;25.20;54.10;;;;;;5059443;28;20507;-78
2023/07/18 06:30:13;;;;;;;5.87;4.27;;;25.20;54.00;;;;;;5059833;28;20492;-80
2023/07/18 06:32:44;;;;;;;4.87;3.90;;;25.20;54.10;;;;;;5051144;28;20466;-79
2023/07/18 06:35:12;;;;;;;4.17;3.70;;;25.20;54.10;;;;;;5050834;28;20470;-79
2023/07/18 06:37:44;;;;;;;6.90;3.50;;;25.20;53.90;;;;;;5057640;28;20553;-80
2023/07/18 06:40:13;;;;;;;5.60;4.00;;;25.30;54.00;;;;;;5052494;28;20447;-80
2023/07/18 06:42:41;;;;;;;4.57;3.27;;;25.30;54.00;;;;;;5059176;28;20457;-79
2023/07/18 06:45:09;;;;;;;5.70;3.63;;;25.30;54.00;;;;;;5058942;28;20470;-81
2023/07/18 06:47:37;;;;;;;3.87;3.57;;;25.30;53.80;;;;;;5058837;28;20852;-81
2023/07/18 06:50:08;;;;;;;7.30;3.67;;;25.40;53.80;;;;;;5058983;28;20432;-79
2023/07/18 06:52:36;;;;;;;4.80;3.50;;;25.40;53.90;;;;;;5053567;28;20566;-81
2023/07/18 06:55:04;;;;;;;5.37;3.67;;;25.40;53.90;;;;;;5046877;28;20445;-81
2023/07/18 06:57:33;;;;;;;3.83;3.53;;;25.50;53.90;;;;;;5045591;28;20875;-79
2023/07/18 07:00:04;;;;;;;5.17;3.50;;;25.60;53.80;;;;;;5048215;28;20533;-79
2023/07/18 07:02:32;;;;;;;6.83;3.50;;;25.60;54.30;;;;;;5037174;28;20480;-80
2023/07/18 07:05:00;;;;;;;3.70;3.37;;;25.70;53.50;;;;;;5053777;28;20448;-79
2023/07/18 07:07:29;;;;;;;3.83;3.50;;;25.70;53.50;;;;;;5044787;28;20475;-77
2023/07/18 07:09:57;;;;;;;3.43;3.13;;;25.80;53.30;;;;;;5049484;28;20454;-78
2023/07/18 07:12:25;;;;;;;3.70;3.40;;;25.80;53.40;;;;;;5048978;28;20442;-79
2023/07/18 07:15:04;;;;;;;3.83;3.20;;;25.90;53.40;;;;;;5053782;28;20924;-79
2023/07/18 07:17:32;;;;;;;4.93;4.10;;;26.00;53.30;;;;;;5054592;28;20453;-77
2023/07/18 07:20:00;;;;;;;4.03;3.40;;;26.00;53.20;;;;;;5058966;28;20425;-80
2023/07/18 07:22:30;;;;;;;5.57;3.90;;;26.10;53.20;;;;;;5061732;28;20417;-78
2023/07/18 07:24:58;;;;;;;5.30;4.10;;;26.10;53.20;;;;;;5048641;28;20466;-79
2023/07/18 07:27:26;;;;;;;4.83;3.43;;;26.20;53.20;;;;;;5055482;28;20448;-79
2023/07/18 07:29:54;;;;;;;4.43;3.40;;;26.20;53.20;;;;;;5054744;28;20447;-79
2023/07/18 07:32:22;;;;;;;5.03;3.83;;;26.30;53.30;;;;;;5047601;28;20469;-77
2023/07/18 07:34:50;;;;;;;4.10;3.50;;;26.30;53.20;;;;;;5058700;28;20471;-77
2023/07/18 07:37:18;;;;;;;5.00;3.80;;;26.40;53.10;;;;;;5058051;28;20504;-78
2023/07/18 07:39:47;;;;;;;5.37;3.80;;;26.50;53.20;;;;;;5055356;28;20409;-79
2023/07/18 07:42:15;;;;;;;4.40;3.67;;;26.50;53.10;;;;;;5067506;28;20525;-80
2023/07/18 07:44:45;;;;;;;3.70;3.17;;;26.60;53.10;;;;;;5055848;28;20450;-80
2023/07/18 07:47:14;;;;;;;5.53;4.13;;;26.70;53.20;;;;;;5056444;28;20481;-79
2023/07/18 07:49:42;;;;;;;4.10;3.17;;;26.80;53.00;;;;;;5065021;28;20437;-79
2023/07/18 07:52:10;;;;;;;6.10;3.83;;;26.90;53.00;;;;;;5058823;28;20437;-79
2023/07/18 07:54:38;;;;;;;5.40;3.60;;;27.00;53.00;;;;;;5067242;28;20556;-77
2023/07/18 07:57:07;;;;;;;5.63;3.57;;;27.10;52.90;;;;;;5054617;28;20485;-76
2023/07/18 07:59:35;;;;;;;4.33;3.57;;;27.10;52.80;;;;;;5057708;28;20970;-78
2023/07/18 08:02:04;;;;;;;4.57;3.73;;;27.20;52.90;;;;;;5062456;28;20448;-78
2023/07/18 08:04:31;;;;;;;4.20;3.70;;;27.30;52.90;;;;;;5051872;28;20405;-79
2023/07/18 08:06:59;;;;;;;3.87;3.40;;;27.30;52.90;;;;;;5063347;28;20437;-78
2023/07/18 08:09:27;;;;;;;7.83;3.80;;;27.40;53.10;;;;;;5050227;28;20490;-80
2023/07/18 08:11:55;;;;;;;3.83;3.30;;;27.50;53.00;;;;;;5060351;28;20467;-78
2023/07/18 08:14:24;;;;;;;4.47;3.20;;;27.60;53.10;;;;;;5054697;28;20596;-78
2023/07/18 08:16:53;;;;;;;3.60;3.30;;;27.70;53.00;;;;;;5051419;28;20525;-79
2023/07/18 08:19:21;;;;;;;7.13;3.60;;;27.80;52.70;;;;;;5050644;28;20558;-80
2023/07/18 08:21:49;;;;;;;4.77;3.47;;;27.80;52.80;;;;;;5047250;28;20477;-78
2023/07/18 08:24:16;;;;;;;3.43;3.13;;;27.90;52.80;;;;;;5054333;28;20474;-78
2023/07/18 08:26:44;;;;;;;4.43;3.43;;;28.00;52.70;;;;;;5053302;28;20489;-78
2023/07/18 08:29:12;;;;;;;9.30;3.77;;;28.20;52.60;;;;;;5047201;28;21003;-79
2023/07/18 08:31:42;;;;;;;4.17;3.20;;;28.30;52.40;;;;;;5063339;28;20433;-79
2023/07/18 08:34:10;;;;;;;4.83;3.03;;;28.50;52.30;;;;;;5057593;28;20427;-78
2023/07/18 08:36:39;;;;;;;4.60;2.87;;;28.60;52.20;;;;;;5053586;28;20514;-79
2023/07/18 08:39:07;;;;;;;3.20;3.00;;;28.70;52.10;;;;;;5053446;28;20505;-77
2023/07/18 08:41:40;;;;;;;2.97;2.77;;;28.80;51.90;;;;;;5053685;28;20427;-78
2023/07/18 08:44:08;;;;;;;3.93;3.43;;;29.00;51.90;;;;;;5047437;28;20479;-78
2023/07/18 08:46:35;;;;;;;4.87;3.00;;;29.10;51.60;;;;;;5058158;28;20406;-78
2023/07/18 08:49:05;;;;;;;3.40;3.10;;;29.10;51.30;;;;;;5054273;28;20433;-79
2023/07/18 08:51:33;;;;;;;5.90;3.27;;;29.10;51.20;;;;;;5050106;28;20470;-78
2023/07/18 08:54:01;;;;;;;4.37;2.80;;;29.20;51.50;;;;;;5061286;28;20409;-78
2023/07/18 08:56:29;;;;;;;3.27;2.97;;;29.30;51.30;;;;;;5060027;28;20530;-79
2023/07/18 08:58:58;;;;;;;4.60;2.90;;;29.40;51.40;;;;;;5053319;28;20540;-78
2023/07/18 09:01:26;;;;;;;3.83;3.13;;;29.60;51.40;;;;;;5053987;28;20500;-78
2023/07/18 09:03:54;;;;;;;5.23;3.10;;;29.70;51.20;;;;;;5051202;28;20452;-79
2023/07/18 09:06:24;;;;;;;3.93;2.80;;;29.80;51.00;;;;;;5053707;28;20446;-78
2023/07/18 09:08:55;;;;;;;6.60;2.97;;;30.00;50.80;;;;;;5048977;28;20516;-78
2023/07/18 09:11:24;;;;;;;3.50;3.20;;;30.10;50.50;;;;;;5055424;28;20445;-77
2023/07/18 09:13:52;;;;;;;2.73;2.53;;;30.30;50.70;;;;;;5058750;28;20445;-78
2023/07/18 09:16:21;;;;;;;3.30;2.67;;;30.40;50.40;;;;;;5051854;28;20518;-79
2023/07/18 09:18:49;;;;;;;3.00;2.73;;;30.60;50.20;;;;;;5043175;28;20492;-78
2023/07/18 09:21:18;;;;;;;2.73;2.53;;;30.70;50.10;;;;;;5051622;28;20443;-78
2023/07/18 09:23:48;;;;;;;3.20;2.60;;;30.90;49.90;;;;;;5053042;28;20442;-78
2023/07/18 09:26:18;;;;;;;3.53;3.07;;;30.90;49.60;;;;;;5051378;28;20539;-78
2023/07/18 09:28:46;;;;;;;3.47;2.63;;;30.90;49.60;;;;;;5048202;28;20536;-78
2023/07/18 09:31:18;;;;;;;3.40;2.60;;;31.00;49.70;;;;;;5056401;28;20500;-78
2023/07/18 09:33:46;;;;;;;4.30;3.00;;;31.00;49.30;;;;;;5046185;28;20446;-78
2023/07/18 09:36:16;;;;;;;3.13;2.53;;;31.10;49.60;;;;;;5052221;28;20549;-78
2023/07/18 09:38:45;;;;;;;2.97;2.67;;;31.10;49.20;;;;;;5050673;28;20592;-78
2023/07/18 09:41:15;;;;;;;3.57;2.73;;;31.10;49.30;;;;;;5055967;28;20452;-78
2023/07/18 09:43:43;;;;;;;5.63;2.93;;;31.20;49.60;;;;;;5045322;28;20484;-79
2023/07/18 09:46:12;;;;;;;2.37;2.20;;;31.30;49.20;;;;;;5049025;28;20447;-78
2023/07/18 09:48:40;;;;;;;3.07;2.77;;;31.30;49.30;;;;;;5054319;28;20478;-78
2023/07/18 09:51:14;;;;;;;2.77;2.57;;;31.50;49.30;;;;;;5050815;28;20451;-77
2023/07/18 09:53:45;;;;;;;2.57;2.37;;;31.60;49.20;;;;;;5056842;28;20446;-78
2023/07/18 09:56:16;;;;;;;2.07;1.97;;;31.90;48.90;;;;;;5056941;28;20444;-78
2023/07/18 09:58:46;;;;;;;2.90;2.70;;;32.10;48.60;;;;;;5061395;28;20520;-78
2023/07/18 10:01:19;;;;;;;3.03;2.43;;;32.30;48.10;;;;;;5056148;28;20490;-78
2023/07/18 10:03:49;;;;;;;3.00;2.60;;;32.30;47.90;;;;;;5059659;28;20445;-79
2023/07/18 10:06:18;;;;;;;3.57;2.30;;;32.20;47.80;;;;;;5057180;28;20437;-78
2023/07/18 10:08:46;;;;;;;2.60;2.40;;;32.10;47.80;;;;;;5058891;28;21055;-78
2023/07/18 10:11:15;;;;;;;2.80;2.60;;;32.10;47.90;;;;;;5048342;28;20469;-79
2023/07/18 10:14:14;;;;;;;2.53;2.43;;;32.10;48.20;;;;;;5054710;28;20448;-78
2023/07/18 10:16:43;;;;;;;2.50;2.10;;;32.10;48.00;;;;;;5049640;28;20532;-78
2023/07/18 10:19:18;;;;;;;2.50;2.30;;;32.10;47.80;;;;;;5048250;28;20504;-78
2023/07/18 10:21:46;;;;;;;2.90;2.70;;;32.10;47.70;;;;;;5055222;28;20457;-78
2023/07/18 10:24:32;;;;;;;2.50;2.30;;;32.20;48.10;;;;;;5054311;28;20453;-79
2023/07/18 10:27:09;;;;;;;2.80;2.50;;;32.30;47.90;;;;;;5055805;28;21057;-79
2023/07/18 10:29:38;;;;;;;2.47;2.37;;;32.40;47.40;;;;;;5056387;28;20511;-78
2023/07/18 10:32:09;;;;;;;2.30;2.10;;;32.40;47.30;;;;;;5052097;28;20448;-79
2023/07/18 10:34:38;;;;;;;3.60;2.53;;;32.30;47.30;;;;;;5053422;28;20437;-79
2023/07/18 10:37:07;;;;;;;3.93;2.53;;;32.20;47.30;;;;;;5054087;28;20981;-79
2023/07/18 10:39:38;;;;;;;2.40;2.20;;;32.10;47.50;;;;;;5051685;28;20835;-79
2023/07/18 10:42:09;;;;;;;3.80;2.33;;;32.00;47.40;;;;;;5054480;28;20446;-77
2023/07/18 10:44:37;;;;;;;2.77;2.50;;;31.90;47.60;;;;;;5055108;28;20485;-79
2023/07/18 10:47:13;;;;;;;2.57;2.27;;;31.80;47.60;;;;;;5055269;28;20434;-78
2023/07/18 10:49:41;;;;;;;2.40;2.30;;;31.70;47.80;;;;;;5050775;28;20470;-79
2023/07/18 10:52:10;;;;;;;2.70;1.80;;;31.60;48.10;;;;;;5052725;28;20445;-78
2023/07/18 10:54:38;;;;;;;2.40;2.20;;;31.50;48.30;;;;;;5041756;28;20530;-78
2023/07/18 10:57:06;;;;;;;2.20;2.10;;;31.40;48.40;;;;;;5034300;28;20475;-78
2023/07/18 10:59:36;;;;;;;2.37;2.20;;;31.30;48.60;;;;;;5049815;28;20477;-78
2023/07/18 11:02:05;;;;;;;2.10;1.90;;;31.30;48.60;;;;;;5034929;28;20470;-78
2023/07/18 11:04:33;;;;;;;2.43;2.20;;;31.30;48.60;;;;;;5034416;28;20439;-78
2023/07/18 11:07:01;;;;;;;3.00;2.20;;;31.30;48.40;;;;;;5047429;28;20470;-78
2023/07/18 11:09:29;;;;;;;2.57;2.27;;;31.30;48.60;;;;;;5042690;28;20513;-78
2023/07/18 11:11:57;;;;;;;2.13;2.00;;;31.40;48.20;;;;;;5045739;28;20475;-78
2023/07/18 11:14:25;;;;;;;2.17;1.87;;;31.40;48.20;;;;;;5035373;28;20475;-79
2023/07/18 11:16:55;;;;;;;1.77;1.67;;;31.30;48.00;;;;;;5034451;28;20514;-78
2023/07/18 11:19:22;;;;;;;2.93;2.30;;;31.30;48.20;;;;;;5045378;28;20490;-78
2023/07/18 11:21:50;;;;;;;2.17;2.03;;;31.20;48.20;;;;;;5054093;28;20443;-78
2023/07/18 11:24:18;;;;;;;2.40;2.10;;;31.20;48.50;;;;;;5051558;28;20461;-78
2023/07/18 11:26:46;;;;;;;2.93;2.30;;;31.10;48.40;;;;;;5052746;28;20439;-79
2023/07/18 11:29:14;;;;;;;2.93;2.33;;;31.10;48.40;;;;;;5044147;28;20458;-78
2023/07/18 11:31:42;;;;;;;2.87;2.47;;;31.00;48.60;;;;;;5034061;28;20447;-78
2023/07/18 11:34:12;;;;;;;3.00;2.37;;;31.00;48.70;;;;;;5035067;28;20482;-79
2023/07/18 11:36:41;;;;;;;2.40;2.30;;;31.00;48.70;;;;;;5053486;28;20561;-78
2023/07/18 11:39:17;;;;;;;2.90;2.60;;;30.90;48.60;;;;;;5044487;28;21000;-78
2023/07/18 11:41:48;;;;;;;2.73;2.23;;;31.00;48.70;;;;;;5037172;28;20448;-78
2023/07/18 11:44:24;;;;;;;2.47;1.97;;;30.90;48.90;;;;;;5033502;28;20447;-78
2023/07/18 11:46:53;;;;;;;2.10;2.00;;;31.00;48.90;;;;;;5033276;28;20445;-78
2023/07/18 11:49:34;;;;;;;2.07;1.73;;;31.00;48.80;;;;;;5034976;28;20467;-78
2023/07/18 11:52:03;;;;;;;2.30;2.10;;;31.00;48.70;;;;;;5053430;28;20528;-78
2023/07/18 11:54:34;;;;;;;3.23;2.00;;;31.20;48.80;;;;;;5045984;28;20425;-79
2023/07/18 11:57:03;;;;;;;2.97;2.23;;;31.60;48.90;;;;;;5046458;28;20473;-78
2023/07/18 11:59:32;;;;;;;4.40;2.17;;;32.10;48.30;;;;;;5045165;28;20465;-78
2023/07/18 12:02:00;;;;;;;1.93;1.83;;;32.50;47.40;;;;;;5052601;28;20469;-79
2023/07/18 12:04:29;;;;;;;3.10;2.00;;;32.90;46.60;;;;;;5032221;28;20992;-79
2023/07/18 12:06:59;;;;;;;1.93;1.83;;;33.40;46.30;;;;;;5032428;28;20435;-78
2023/07/18 12:09:27;;;;;;;1.60;1.50;;;33.90;45.20;;;;;;5049638;28;20477;-78
2023/07/18 12:11:55;;;;;;;2.10;1.93;;;34.20;44.40;;;;;;5049669;28;20483;-77
2023/07/18 12:14:23;;;;;;;2.10;1.77;;;34.50;43.20;;;;;;5050773;28;20442;-78
2023/07/18 12:16:52;;;;;;;2.33;1.93;;;34.40;43.40;;;;;;5043953;28;20501;-78
2023/07/18 12:19:21;;;;;;;2.40;1.90;;;34.10;43.40;;;;;;5051838;28;20462;-78
2023/07/18 12:21:49;;;;;;;2.10;1.90;;;34.10;44.50;;;;;;5052329;28;20504;-78
2023/07/18 12:24:18;;;;;;;1.57;1.47;;;35.10;43.60;;;;;;5051478;28;20498;-79
2023/07/18 12:26:47;;;;;;;1.90;1.70;;;35.90;41.90;;;;;;5051846;28;20466;-78
2023/07/18 12:29:15;;;;;;;2.00;1.80;;;35.70;40.80;;;;;;5050167;28;20516;-78
2023/07/18 12:31:44;;;;;;;2.20;1.93;;;35.10;41.60;;;;;;5051374;28;20474;-78
2023/07/18 12:34:13;;;;;;;2.33;2.10;;;34.60;42.50;;;;;;5042396;28;20431;-78
2023/07/18 12:36:41;;;;;;;2.50;1.70;;;34.30;43.40;;;;;;5031470;28;20435;-78
2023/07/18 12:39:09;;;;;;;1.80;1.67;;;34.00;43.80;;;;;;5046945;28;20466;-78
2023/07/18 12:41:38;;;;;;;2.00;1.90;;;33.60;44.10;;;;;;5043605;28;20488;-78
2023/07/18 12:44:06;;;;;;;2.03;1.90;;;33.40;44.60;;;;;;5048573;28;20537;-78
2023/07/18 12:46:35;;;;;;;2.67;1.97;;;33.30;45.70;;;;;;5038162;28;20488;-78
2023/07/18 12:49:03;;;;;;;1.70;1.60;;;33.10;45.30;;;;;;5031110;28;20966;-78
2023/07/18 12:51:31;;;;;;;2.87;1.90;;;33.00;45.50;;;;;;5041384;28;20521;-78
2023/07/18 12:53:59;;;;;;;2.00;1.90;;;32.90;45.70;;;;;;5044534;28;20879;-78
2023/07/18 12:56:29;;;;;;;4.00;2.00;;;32.80;45.80;;;;;;5048476;28;20414;-78